createdAt,value
2022-07-26T00:02:10.111Z,19.84
2022-07-26T00:05:14.471Z,19.91
2022-07-26T00:08:16.847Z,19.91
2022-07-26T00:11:19.714Z,19.81
2022-07-26T00:14:21.978Z,20.02
2022-07-26T00:17:24.292Z,20.13
2022-07-26T00:20:27.667Z,20.21
2022-07-26T00:23:30.599Z,20.21
2022-07-26T00:26:33.238Z,20.23
2022-07-26T00:29:35.550Z,20.32
2022-07-26T00:32:38.658Z,20.40
2022-07-26T00:35:41.029Z,20.56
2022-07-26T00:38:43.304Z,20.53
2022-07-26T00:41:45.644Z,20.54
2022-07-26T00:44:48.769Z,20.11
2022-07-26T00:47:51.084Z,19.86
2022-07-26T00:50:55.131Z,20.05
2022-07-26T00:53:57.431Z,20.12
2022-07-26T00:57:00.050Z,19.47
2022-07-26T01:00:05.600Z,19.67
2022-07-26T01:03:07.940Z,19.84
2022-07-26T01:06:10.544Z,19.37
2022-07-26T01:09:13.819Z,19.91
2022-07-26T01:12:16.175Z,19.84
2022-07-26T01:15:18.803Z,20.04
2022-07-26T01:18:21.091Z,20.08
2022-07-26T01:21:28.081Z,20.11
2022-07-26T01:24:30.460Z,20.21
2022-07-26T01:27:35.317Z,20.16
2022-07-26T01:30:37.770Z,19.89
2022-07-26T01:33:40.036Z,19.85
2022-07-26T01:36:42.314Z,19.75
2022-07-26T01:39:45.794Z,19.95
2022-07-26T01:42:48.091Z,19.88
2022-07-26T01:45:50.498Z,19.89
2022-07-26T01:48:53.124Z,20.02
2022-07-26T01:51:55.428Z,19.98
2022-07-26T01:54:57.856Z,19.77
2022-07-26T01:58:00.154Z,19.79
2022-07-26T02:01:02.532Z,19.75
2022-07-26T02:04:05.115Z,19.65
2022-07-26T02:07:12.782Z,19.60
2022-07-26T02:10:15.785Z,19.68
2022-07-26T02:13:18.560Z,19.67
2022-07-26T02:16:20.975Z,19.53
2022-07-26T02:19:23.259Z,19.37
2022-07-26T02:22:32.127Z,19.49
2022-07-26T02:25:41.425Z,19.27
2022-07-26T02:28:50.143Z,19.27
2022-07-26T02:31:53.510Z,19.41
2022-07-26T02:34:58.816Z,19.43
2022-07-26T02:38:03.242Z,19.41
2022-07-26T02:41:06.377Z,19.43
2022-07-26T02:44:10.004Z,19.40
2022-07-26T02:47:12.767Z,19.47
2022-07-26T02:50:19.814Z,19.35
2022-07-26T02:53:22.060Z,19.19
2022-07-26T02:56:24.314Z,18.96
2022-07-26T02:59:26.578Z,18.92
2022-07-26T03:02:28.897Z,19.00
2022-07-26T03:05:31.197Z,18.98
2022-07-26T03:08:33.436Z,18.81
2022-07-26T03:11:35.703Z,18.71
2022-07-26T03:14:37.967Z,18.82
2022-07-26T03:17:40.349Z,18.96
2022-07-26T03:20:42.669Z,18.92
2022-07-26T03:23:44.922Z,18.89
2022-07-26T03:26:47.223Z,18.85
2022-07-26T03:29:49.544Z,18.69
2022-07-26T03:32:51.908Z,18.66
2022-07-26T03:35:54.157Z,18.71
2022-07-26T03:38:57.110Z,18.86
2022-07-26T03:41:59.396Z,19.10
2022-07-26T03:45:02.301Z,19.20
2022-07-26T03:48:04.963Z,19.17
2022-07-26T03:51:07.308Z,19.26
2022-07-26T03:54:09.986Z,19.43
2022-07-26T03:57:12.567Z,19.63
2022-07-26T04:00:15.042Z,19.74
2022-07-26T04:03:17.365Z,19.92
2022-07-26T04:06:19.644Z,20.16
2022-07-26T04:09:25.489Z,20.45
2022-07-26T04:12:27.728Z,20.63
2022-07-26T04:15:30.092Z,20.87
2022-07-26T04:18:32.376Z,21.08
2022-07-26T04:21:34.728Z,21.23
2022-07-26T04:24:36.981Z,21.28
2022-07-26T04:27:39.461Z,21.49
2022-07-26T04:30:42.116Z,21.48
2022-07-26T04:33:44.460Z,21.66
2022-07-26T04:36:46.724Z,21.76
2022-07-26T04:39:54.506Z,21.81
2022-07-26T04:42:57.227Z,21.75
2022-07-26T04:46:00.561Z,21.90
2022-07-26T04:49:03.245Z,22.03
2022-07-26T04:52:05.908Z,21.97
2022-07-26T04:55:09.457Z,22.16
2022-07-26T04:58:12.243Z,22.26
2022-07-26T05:01:15.178Z,22.30
2022-07-26T05:04:17.484Z,22.37
2022-07-26T05:07:19.744Z,22.50
2022-07-26T05:10:27.675Z,22.61
2022-07-26T05:13:31.057Z,22.81
2022-07-26T05:16:33.541Z,22.92
2022-07-26T05:19:35.958Z,23.14
2022-07-26T05:22:38.791Z,23.09
2022-07-26T05:25:41.587Z,23.25
2022-07-26T05:28:43.900Z,23.39
2022-07-26T05:31:46.135Z,23.66
2022-07-26T05:34:48.402Z,23.79
2022-07-26T05:37:50.896Z,23.90
2022-07-26T05:40:53.275Z,24.06
2022-07-26T05:43:55.502Z,24.31
2022-07-26T05:46:57.796Z,24.65
2022-07-26T05:50:00.158Z,24.98
2022-07-26T05:53:02.513Z,25.27
2022-07-26T05:56:05.414Z,25.49
2022-07-26T05:59:07.800Z,25.75
2022-07-26T06:02:10.071Z,26.21
2022-07-26T06:05:12.919Z,26.17
2022-07-26T06:08:15.201Z,26.25
2022-07-26T06:11:17.564Z,26.50
2022-07-26T06:14:20.881Z,26.60
2022-07-26T06:17:23.175Z,26.91
2022-07-26T06:20:25.482Z,27.37
2022-07-26T06:23:34.168Z,27.65
2022-07-26T06:26:37.399Z,27.89
2022-07-26T06:29:40.585Z,28.61
2022-07-26T06:32:44.440Z,29.00
2022-07-26T06:35:46.765Z,29.16
2022-07-26T06:38:49.118Z,28.88
2022-07-26T06:41:51.415Z,28.87
2022-07-26T06:44:57.328Z,28.92
2022-07-26T06:47:59.611Z,28.90
2022-07-26T06:51:01.829Z,29.29
2022-07-26T06:54:05.569Z,29.52
2022-07-26T06:57:08.349Z,30.33
2022-07-26T07:00:11.266Z,30.41
2022-07-26T07:03:13.521Z,30.60
2022-07-26T07:06:16.340Z,30.85
2022-07-26T07:09:18.575Z,31.23
2022-07-26T07:12:21.383Z,31.69
2022-07-26T07:15:23.654Z,31.42
2022-07-26T07:18:25.903Z,31.66
2022-07-26T07:21:28.392Z,31.57
2022-07-26T07:24:30.715Z,31.64
2022-07-26T07:27:35.903Z,31.98
2022-07-26T07:30:38.149Z,32.28
2022-07-26T07:33:52.826Z,32.55
2022-07-26T07:36:56.165Z,32.52
2022-07-26T07:39:59.820Z,32.59
2022-07-26T07:43:02.226Z,32.86
2022-07-26T07:46:04.674Z,33.26
2022-07-26T07:49:07.382Z,33.54
2022-07-26T07:52:10.093Z,33.71
2022-07-26T07:55:28.748Z,34.06
2022-07-26T07:58:34.761Z,33.75
2022-07-26T08:01:40.217Z,33.98
2022-07-26T08:04:43.379Z,33.98
2022-07-26T08:07:45.816Z,34.11
2022-07-26T08:10:51.689Z,34.46
2022-07-26T08:13:54.365Z,34.60
2022-07-26T08:16:57.504Z,34.49
2022-07-26T08:20:00.426Z,34.83
2022-07-26T08:23:03.054Z,35.20
2022-07-26T08:26:06.985Z,35.48
2022-07-26T08:29:09.538Z,35.44
2022-07-26T08:32:11.992Z,35.37
2022-07-26T08:35:17.652Z,35.02
2022-07-26T08:38:22.282Z,35.34
2022-07-26T08:41:24.519Z,35.37
2022-07-26T08:44:26.946Z,35.75
2022-07-26T08:47:39.848Z,35.57
2022-07-26T08:50:45.358Z,36.14
2022-07-26T08:53:47.965Z,36.57
2022-07-26T08:56:52.943Z,36.74
2022-07-26T09:00:21.829Z,37.24
2022-07-26T09:03:27.357Z,36.88
2022-07-26T09:06:29.765Z,37.38
2022-07-26T09:09:33.865Z,37.42
2022-07-26T09:12:37.687Z,37.31
2022-07-26T09:15:39.972Z,37.13
2022-07-26T09:18:42.218Z,37.79
2022-07-26T09:21:44.961Z,38.27
2022-07-26T09:24:48.046Z,38.04
2022-07-26T09:27:50.958Z,38.59
2022-07-26T09:30:54.921Z,38.36
2022-07-26T09:33:59.163Z,38.68
2022-07-26T09:37:01.571Z,38.35
2022-07-26T09:40:09.301Z,38.49
2022-07-26T09:43:16.464Z,39.04
2022-07-26T09:46:26.255Z,39.03
2022-07-26T09:49:40.030Z,39.28
2022-07-26T09:53:04.652Z,39.24
2022-07-26T09:56:08.153Z,39.21
2022-07-26T09:59:11.811Z,38.98
2022-07-26T10:02:14.361Z,39.49
2022-07-26T10:05:18.002Z,39.86
2022-07-26T10:08:20.492Z,40.03
2022-07-26T10:11:25.171Z,40.19
2022-07-26T10:14:33.510Z,40.12
2022-07-26T10:17:41.959Z,40.05
2022-07-26T10:20:51.952Z,40.43
2022-07-26T10:24:02.270Z,40.91
2022-07-26T10:27:06.197Z,39.96
2022-07-26T10:30:18.080Z,40.16
2022-07-26T10:33:25.492Z,40.41
2022-07-26T10:36:31.229Z,39.95
2022-07-26T10:39:33.639Z,40.15
2022-07-26T10:42:45.856Z,40.19
2022-07-26T10:45:49.509Z,40.00
2022-07-26T10:49:04.123Z,39.75
2022-07-26T10:52:13.015Z,40.05
2022-07-26T10:55:15.398Z,40.27
2022-07-26T10:58:18.414Z,40.19
2022-07-26T11:01:21.095Z,40.02
2022-07-26T11:04:23.812Z,39.14
2022-07-26T11:07:26.105Z,39.37
2022-07-26T11:10:47.506Z,39.51
2022-07-26T11:13:49.908Z,39.42
2022-07-26T11:16:52.175Z,39.99
2022-07-26T11:19:55.354Z,40.33
2022-07-26T11:22:57.667Z,40.13
2022-07-26T11:26:11.728Z,40.30
2022-07-26T11:29:17.424Z,39.92
2022-07-26T11:32:25.292Z,40.26
2022-07-26T11:35:30.142Z,40.00
2022-07-26T11:38:51.212Z,39.66
2022-07-26T11:42:08.149Z,40.03
2022-07-26T11:45:11.363Z,39.51
2022-07-26T11:48:13.664Z,40.13
2022-07-26T11:51:21.583Z,39.96
2022-07-26T11:54:29.141Z,38.27
2022-07-26T11:57:32.395Z,38.11
2022-07-26T12:00:35.144Z,38.46
2022-07-26T12:03:41.764Z,38.95
2022-07-26T12:06:44.094Z,39.04
2022-07-26T12:09:46.295Z,38.70
2022-07-26T12:12:48.790Z,39.15
2022-07-26T12:15:53.080Z,39.32
2022-07-26T12:18:55.535Z,39.05
2022-07-26T12:22:15.773Z,37.68
2022-07-26T12:25:28.193Z,37.47
2022-07-26T12:28:57.551Z,35.84
2022-07-26T12:32:12.541Z,35.96
2022-07-26T12:35:17.738Z,34.48
2022-07-26T12:38:39.384Z,34.05
2022-07-26T12:41:41.896Z,33.36
2022-07-26T12:44:44.135Z,33.42
2022-07-26T12:47:49.445Z,33.53
2022-07-26T12:50:52.006Z,33.34
2022-07-26T12:53:54.375Z,33.33
2022-07-26T12:56:56.620Z,32.78
2022-07-26T12:59:59.373Z,32.34
2022-07-26T13:03:01.746Z,32.38
2022-07-26T13:06:04.537Z,32.34
2022-07-26T13:09:06.779Z,32.42
2022-07-26T13:12:09.781Z,32.41
2022-07-26T13:15:20.803Z,32.07
2022-07-26T13:18:23.051Z,31.73
2022-07-26T13:21:25.305Z,31.36
2022-07-26T13:24:37.446Z,30.65
2022-07-26T13:27:44.711Z,30.23
2022-07-26T13:30:47.396Z,30.13
2022-07-26T13:33:49.678Z,30.43
2022-07-26T13:36:52.136Z,30.24
2022-07-26T13:39:54.383Z,31.67
2022-07-26T13:42:56.669Z,31.66
2022-07-26T13:45:59.293Z,31.12
2022-07-26T13:49:04.191Z,30.37
2022-07-26T13:52:12.083Z,30.03
2022-07-26T13:55:17.551Z,30.02
2022-07-26T13:58:21.686Z,29.62
2022-07-26T14:01:43.339Z,28.98
2022-07-26T14:04:46.367Z,28.77
2022-07-26T14:07:48.774Z,28.67
2022-07-26T14:10:51.097Z,28.36
2022-07-26T14:13:54.801Z,28.32
2022-07-26T14:16:57.181Z,28.42
2022-07-26T14:19:59.465Z,28.64
2022-07-26T14:23:01.748Z,28.84
2022-07-26T14:26:04.010Z,29.05
2022-07-26T14:29:06.344Z,29.33
2022-07-26T14:32:08.638Z,29.19
2022-07-26T14:35:11.198Z,29.04
2022-07-26T14:38:17.026Z,28.92
2022-07-26T14:41:24.743Z,28.83
2022-07-26T14:44:27.339Z,28.65
2022-07-26T14:47:29.577Z,28.44
2022-07-26T14:50:47.036Z,28.27
2022-07-26T14:53:54.133Z,28.36
2022-07-26T14:56:56.396Z,28.09
2022-07-26T14:59:59.333Z,28.09
2022-07-26T15:03:01.773Z,28.01
2022-07-26T15:06:04.218Z,27.65
2022-07-26T15:09:06.576Z,27.38
2022-07-26T15:12:09.028Z,27.23
2022-07-26T15:15:11.977Z,27.33
2022-07-26T15:18:14.234Z,27.07
2022-07-26T15:21:16.549Z,27.01
2022-07-26T15:24:18.802Z,26.63
2022-07-26T15:27:21.087Z,26.64
2022-07-26T15:30:23.984Z,26.75
2022-07-26T15:33:28.171Z,26.87
2022-07-26T15:36:30.426Z,26.69
2022-07-26T15:39:32.750Z,26.59
2022-07-26T15:42:44.121Z,26.50
2022-07-26T15:45:46.767Z,26.52
2022-07-26T15:48:52.056Z,26.29
2022-07-26T15:51:56.944Z,26.42
2022-07-26T15:54:59.232Z,26.48
2022-07-26T15:58:01.785Z,26.60
2022-07-26T16:01:04.525Z,26.70
2022-07-26T16:04:07.249Z,26.70
2022-07-26T16:07:09.602Z,26.66
2022-07-26T16:10:13.486Z,26.52
2022-07-26T16:13:15.790Z,26.75
2022-07-26T16:16:18.075Z,26.64
2022-07-26T16:19:20.367Z,26.97
2022-07-26T16:22:23.001Z,27.08
2022-07-26T16:25:26.775Z,27.15
2022-07-26T16:28:29.233Z,27.04
2022-07-26T16:31:31.836Z,26.68
2022-07-26T16:34:34.823Z,26.79
2022-07-26T16:37:37.793Z,26.59
2022-07-26T16:40:40.052Z,26.46
2022-07-26T16:43:42.982Z,26.31
2022-07-26T16:46:45.330Z,26.38
2022-07-26T16:49:48.450Z,26.25
2022-07-26T16:52:50.728Z,26.31
2022-07-26T16:55:53.267Z,26.38
2022-07-26T16:58:55.556Z,26.45
2022-07-26T17:01:59.555Z,26.33
2022-07-26T17:05:07.433Z,26.40
2022-07-26T17:08:09.669Z,26.56
2022-07-26T17:11:12.116Z,26.70
2022-07-26T17:14:17.850Z,26.53
2022-07-26T17:17:20.268Z,26.53
2022-07-26T17:20:22.789Z,26.52
2022-07-26T17:23:25.111Z,26.36
2022-07-26T17:26:30.590Z,26.49
2022-07-26T17:29:32.895Z,26.53
2022-07-26T17:32:38.254Z,26.75
2022-07-26T17:35:40.882Z,26.86
2022-07-26T17:38:43.219Z,26.80
2022-07-26T17:41:49.208Z,26.59
2022-07-26T17:44:51.582Z,26.28
2022-07-26T17:47:53.817Z,26.29
2022-07-26T17:50:56.147Z,26.21
2022-07-26T17:53:58.370Z,26.04
2022-07-26T17:57:00.672Z,26.04
2022-07-26T18:00:06.509Z,25.68
2022-07-26T18:03:09.209Z,25.71
2022-07-26T18:06:11.723Z,25.30
2022-07-26T18:09:14.442Z,25.29
2022-07-26T18:12:16.783Z,25.30
2022-07-26T18:15:19.193Z,25.20
2022-07-26T18:18:21.933Z,25.06
2022-07-26T18:21:24.239Z,24.89
2022-07-26T18:24:26.549Z,24.85
2022-07-26T18:27:28.875Z,24.86
2022-07-26T18:30:32.482Z,24.67
2022-07-26T18:33:34.888Z,24.52
2022-07-26T18:36:37.164Z,24.42
2022-07-26T18:39:39.913Z,24.48
2022-07-26T18:42:42.262Z,24.38
2022-07-26T18:45:44.688Z,24.37
2022-07-26T18:48:47.026Z,24.49
2022-07-26T18:51:50.950Z,24.21
2022-07-26T18:54:55.127Z,24.07
2022-07-26T18:57:57.420Z,24.22
2022-07-26T19:00:59.665Z,24.27
2022-07-26T19:04:06.355Z,24.22
2022-07-26T19:07:09.428Z,24.06
2022-07-26T19:10:13.050Z,24.01
2022-07-26T19:13:15.273Z,23.94
2022-07-26T19:16:17.773Z,23.92
2022-07-26T19:19:21.417Z,23.87
2022-07-26T19:22:24.087Z,23.83
2022-07-26T19:25:26.450Z,23.87
2022-07-26T19:28:28.940Z,23.81
2022-07-26T19:31:31.985Z,23.86
2022-07-26T19:34:34.856Z,23.76
2022-07-26T19:37:37.156Z,23.80
2022-07-26T19:40:39.479Z,23.74
2022-07-26T19:43:41.727Z,23.71
2022-07-26T19:46:45.110Z,23.74
2022-07-26T19:49:47.348Z,23.74
2022-07-26T19:52:49.668Z,23.67
2022-07-26T19:55:52.323Z,23.59
2022-07-26T19:59:00.298Z,23.57
2022-07-26T20:02:03.007Z,23.56
2022-07-26T20:05:05.964Z,23.46
2022-07-26T20:08:08.216Z,23.47
2022-07-26T20:11:11.144Z,23.38
2022-07-26T20:14:13.357Z,23.35
2022-07-26T20:17:16.017Z,23.29
2022-07-26T20:20:18.312Z,23.12
2022-07-26T20:23:20.617Z,23.08
2022-07-26T20:26:23.032Z,23.12
2022-07-26T20:29:25.303Z,23.04
2022-07-26T20:32:27.552Z,23.06
2022-07-26T20:35:30.634Z,23.05
2022-07-26T20:38:32.924Z,23.04
2022-07-26T20:41:35.216Z,22.92
2022-07-26T20:44:37.992Z,22.95
2022-07-26T20:47:42.998Z,22.90
2022-07-26T20:50:45.369Z,22.92
2022-07-26T20:53:47.640Z,22.81
2022-07-26T20:56:49.932Z,22.90
2022-07-26T20:59:52.251Z,22.79
2022-07-26T21:02:54.592Z,22.79
2022-07-26T21:05:56.958Z,22.91
2022-07-26T21:08:59.946Z,22.85
2022-07-26T21:12:02.252Z,22.69
2022-07-26T21:15:04.910Z,22.53
2022-07-26T21:18:07.571Z,22.65
2022-07-26T21:21:09.838Z,22.65
2022-07-26T21:24:12.308Z,22.58
2022-07-26T21:27:14.539Z,22.67
2022-07-26T21:30:16.824Z,22.60
2022-07-26T21:33:19.035Z,22.48
2022-07-26T21:36:21.379Z,22.33
2022-07-26T21:39:23.616Z,22.34
2022-07-26T21:42:26.919Z,22.32
2022-07-26T21:45:29.311Z,22.32
2022-07-26T21:48:31.673Z,22.40
2022-07-26T21:51:33.940Z,22.37
2022-07-26T21:54:36.291Z,22.39
2022-07-26T21:57:44.300Z,22.43
2022-07-26T22:00:46.629Z,22.36
2022-07-26T22:03:48.884Z,22.23
2022-07-26T22:06:51.180Z,22.12
2022-07-26T22:09:53.405Z,22.10
2022-07-26T22:12:55.698Z,22.06
2022-07-26T22:15:58.042Z,22.06
2022-07-26T22:19:00.373Z,21.99
2022-07-26T22:22:05.732Z,21.95
2022-07-26T22:25:08.508Z,22.07
2022-07-26T22:28:11.873Z,21.96
2022-07-26T22:31:14.179Z,21.96
2022-07-26T22:34:17.637Z,21.88
2022-07-26T22:37:20.189Z,21.79
2022-07-26T22:40:23.404Z,21.82
2022-07-26T22:43:25.975Z,21.82
2022-07-26T22:46:29.564Z,21.72
2022-07-26T22:49:32.151Z,21.24
2022-07-26T22:52:35.397Z,20.88
2022-07-26T22:55:37.730Z,20.84
2022-07-26T22:58:40.093Z,20.64
2022-07-26T23:01:42.444Z,20.67
2022-07-26T23:04:44.662Z,20.86
2022-07-26T23:07:48.151Z,20.97
2022-07-26T23:10:50.663Z,21.05
2022-07-26T23:13:58.798Z,21.18
2022-07-26T23:17:01.567Z,21.35
2022-07-26T23:20:06.171Z,21.52
2022-07-26T23:23:08.847Z,21.56
2022-07-26T23:26:11.129Z,21.63
2022-07-26T23:29:13.733Z,21.61
2022-07-26T23:32:16.585Z,21.55
2022-07-26T23:35:18.971Z,21.55
2022-07-26T23:38:21.279Z,21.56
2022-07-26T23:41:23.783Z,21.48
2022-07-26T23:44:26.085Z,21.56
2022-07-26T23:47:35.430Z,21.61
2022-07-26T23:50:37.716Z,21.52
2022-07-26T23:53:39.957Z,21.48
2022-07-26T23:56:49.192Z,21.52
2022-07-26T23:59:51.441Z,21.56
